<?xml version="1.0" encoding="UTF-8" standalone="no" ?>
<gpx xmlns="http://www.topografix.com/GPX/1/1" xmlns:xsi="http://www.w3.org/2001/XMLSchema-instance" xsi:schemaLocation="http://www.topografix.com/GPX/1/1 http://www.topografix.com/GPX/1/1/gpx.xsd" version="1.1" creator="VisuGPX - https://www.visugpx.com">
  <metadata>
    <name>Moliets-et-Maat</name>
  </metadata>
  <trk>
    <name><![CDATA[2021 08 28 Moliets-et-Maat]]></name>
    <trkseg>
      <trkpt lat="43.8455" lon="-1.39164">
        <ele>11.96881</ele>
        <time>2021-08-28T13:53:57.000Z</time>
      </trkpt>
      <trkpt lat="43.84545" lon="-1.3916">
        <ele>12.11041</ele>
        <time>2021-08-28T13:55:08.000Z</time>
      </trkpt>
      <trkpt lat="43.84576" lon="-1.39199">
        <ele>12.31162</ele>
        <time>2021-08-28T13:55:29.000Z</time>
      </trkpt>
      <trkpt lat="43.84601" lon="-1.39193">
        <ele>12.67884</ele>
        <time>2021-08-28T13:55:49.000Z</time>
      </trkpt>
      <trkpt lat="43.84609" lon="-1.39195">
        <ele>12.86364</ele>
        <time>2021-08-28T13:56:09.000Z</time>
      </trkpt>
      <trkpt lat="43.84669" lon="-1.39185">
        <ele>11.16785</ele>
        <time>2021-08-28T13:56:30.000Z</time>
      </trkpt>
      <trkpt lat="43.84716" lon="-1.39178">
        <ele>12.11732</ele>
        <time>2021-08-28T13:56:51.000Z</time>
      </trkpt>
      <trkpt lat="43.84716" lon="-1.39178">
        <ele>12.16888</ele>
        <time>2021-08-28T13:58:32.000Z</time>
      </trkpt>
      <trkpt lat="43.84723" lon="-1.39159">
        <ele>12.00604</ele>
        <time>2021-08-28T13:58:53.000Z</time>
      </trkpt>
      <trkpt lat="43.84741" lon="-1.39099">
        <ele>14.28377</ele>
        <time>2021-08-28T13:59:13.000Z</time>
      </trkpt>
      <trkpt lat="43.84743" lon="-1.39037">
        <ele>16.4254</ele>
        <time>2021-08-28T13:59:34.000Z</time>
      </trkpt>
      <trkpt lat="43.84783" lon="-1.39025">
        <ele>17.23165</ele>
        <time>2021-08-28T13:59:54.000Z</time>
      </trkpt>
      <trkpt lat="43.84856" lon="-1.38991">
        <ele>10.24855</ele>
        <time>2021-08-28T14:00:14.000Z</time>
      </trkpt>
      <trkpt lat="43.84907" lon="-1.39027">
        <ele>12.88096</ele>
        <time>2021-08-28T14:00:35.000Z</time>
      </trkpt>
      <trkpt lat="43.84936" lon="-1.38988">
        <ele>11.40633</ele>
        <time>2021-08-28T14:00:56.000Z</time>
      </trkpt>
      <trkpt lat="43.84954" lon="-1.38939">
        <ele>10.98078</ele>
        <time>2021-08-28T14:01:17.000Z</time>
      </trkpt>
      <trkpt lat="43.84979" lon="-1.38876">
        <ele>12.93787</ele>
        <time>2021-08-28T14:01:38.000Z</time>
      </trkpt>
      <trkpt lat="43.85039" lon="-1.38844">
        <ele>14.06415</ele>
        <time>2021-08-28T14:01:58.000Z</time>
      </trkpt>
      <trkpt lat="43.8508" lon="-1.38818">
        <ele>14.99048</ele>
        <time>2021-08-28T14:02:18.000Z</time>
      </trkpt>
      <trkpt lat="43.85082" lon="-1.38818">
        <ele>14.94302</ele>
        <time>2021-08-28T14:02:38.000Z</time>
      </trkpt>
      <trkpt lat="43.85102" lon="-1.38819">
        <ele>13.94402</ele>
        <time>2021-08-28T14:02:59.000Z</time>
      </trkpt>
      <trkpt lat="43.85166" lon="-1.38757">
        <ele>9.43609</ele>
        <time>2021-08-28T14:03:19.000Z</time>
      </trkpt>
      <trkpt lat="43.85187" lon="-1.38747">
        <ele>8.43823</ele>
        <time>2021-08-28T14:03:39.000Z</time>
      </trkpt>
      <trkpt lat="43.85195" lon="-1.38747">
        <ele>7.79195</ele>
        <time>2021-08-28T14:04:41.000Z</time>
      </trkpt>
      <trkpt lat="43.85213" lon="-1.38759">
        <ele>7.61212</ele>
        <time>2021-08-28T14:05:01.000Z</time>
      </trkpt>
      <trkpt lat="43.85212" lon="-1.38789">
        <ele>8.19783</ele>
        <time>2021-08-28T14:05:21.000Z</time>
      </trkpt>
      <trkpt lat="43.85225" lon="-1.38885">
        <ele>11.32305</ele>
        <time>2021-08-28T14:05:42.000Z</time>
      </trkpt>
      <trkpt lat="43.85236" lon="-1.38956">
        <ele>12.94337</ele>
        <time>2021-08-28T14:06:03.000Z</time>
      </trkpt>
      <trkpt lat="43.85221" lon="-1.39003">
        <ele>15.46331</ele>
        <time>2021-08-28T14:06:23.000Z</time>
      </trkpt>
      <trkpt lat="43.85209" lon="-1.38986">
        <ele>15.16776</ele>
        <time>2021-08-28T14:06:44.000Z</time>
      </trkpt>
      <trkpt lat="43.85208" lon="-1.38982">
        <ele>14.92363</ele>
        <time>2021-08-28T14:09:07.000Z</time>
      </trkpt>
      <trkpt lat="43.85222" lon="-1.39003">
        <ele>15.35068</ele>
        <time>2021-08-28T14:09:27.000Z</time>
      </trkpt>
      <trkpt lat="43.85239" lon="-1.39008">
        <ele>14.6309</ele>
        <time>2021-08-28T14:09:48.000Z</time>
      </trkpt>
      <trkpt lat="43.85245" lon="-1.39016">
        <ele>14.81761</ele>
        <time>2021-08-28T14:10:30.000Z</time>
      </trkpt>
      <trkpt lat="43.85245" lon="-1.39016">
        <ele>14.81761</ele>
        <time>2021-08-28T14:10:30.000Z</time>
      </trkpt>
      <trkpt lat="43.85261" lon="-1.39012">
        <ele>14.86402</ele>
        <time>2021-08-28T14:53:00.000Z</time>
      </trkpt>
      <trkpt lat="43.85257" lon="-1.39017">
        <ele>14.9007</ele>
        <time>2021-08-28T14:54:01.000Z</time>
      </trkpt>
      <trkpt lat="43.85222" lon="-1.38873">
        <ele>11.12299</ele>
        <time>2021-08-28T14:56:05.000Z</time>
      </trkpt>
      <trkpt lat="43.85222" lon="-1.38873">
        <ele>11.12299</ele>
        <time>2021-08-28T14:56:05.000Z</time>
      </trkpt>
      <trkpt lat="43.8522" lon="-1.388">
        <ele>8.43198</ele>
        <time>2021-08-28T14:58:04.000Z</time>
      </trkpt>
      <trkpt lat="43.85219" lon="-1.38793">
        <ele>8.29101</ele>
        <time>2021-08-28T15:00:05.000Z</time>
      </trkpt>
      <trkpt lat="43.85268" lon="-1.38758">
        <ele>11.40616</ele>
        <time>2021-08-28T15:17:03.000Z</time>
      </trkpt>
      <trkpt lat="43.8523" lon="-1.38785">
        <ele>8.92721</ele>
        <time>2021-08-28T15:17:26.000Z</time>
      </trkpt>
      <trkpt lat="43.85229" lon="-1.3879">
        <ele>8.817</ele>
        <time>2021-08-28T15:18:07.000Z</time>
      </trkpt>
      <trkpt lat="43.85223" lon="-1.38804">
        <ele>8.70428</ele>
        <time>2021-08-28T15:18:28.000Z</time>
      </trkpt>
      <trkpt lat="43.85223" lon="-1.38803">
        <ele>8.66216</ele>
        <time>2021-08-28T15:19:10.000Z</time>
      </trkpt>
      <trkpt lat="43.85228" lon="-1.38822">
        <ele>10.01856</ele>
        <time>2021-08-28T15:19:30.000Z</time>
      </trkpt>
      <trkpt lat="43.85227" lon="-1.3884">
        <ele>10.44319</ele>
        <time>2021-08-28T15:19:51.000Z</time>
      </trkpt>
      <trkpt lat="43.85234" lon="-1.38872">
        <ele>10.8306</ele>
        <time>2021-08-28T15:20:11.000Z</time>
      </trkpt>
      <trkpt lat="43.85236" lon="-1.38901">
        <ele>11.85622</ele>
        <time>2021-08-28T15:20:32.000Z</time>
      </trkpt>
      <trkpt lat="43.85237" lon="-1.3893">
        <ele>12.55391</ele>
        <time>2021-08-28T15:20:52.000Z</time>
      </trkpt>
      <trkpt lat="43.85236" lon="-1.3896">
        <ele>13.08846</ele>
        <time>2021-08-28T15:21:13.000Z</time>
      </trkpt>
      <trkpt lat="43.85231" lon="-1.38978">
        <ele>14.43248</ele>
        <time>2021-08-28T15:21:34.000Z</time>
      </trkpt>
      <trkpt lat="43.85221" lon="-1.38996">
        <ele>15.45728</ele>
        <time>2021-08-28T15:21:55.000Z</time>
      </trkpt>
      <trkpt lat="43.85211" lon="-1.38979">
        <ele>14.75289</ele>
        <time>2021-08-28T15:22:15.000Z</time>
      </trkpt>
      <trkpt lat="43.8521" lon="-1.38978">
        <ele>14.6882</ele>
        <time>2021-08-28T15:24:39.000Z</time>
      </trkpt>
      <trkpt lat="43.85193" lon="-1.38935">
        <ele>13.83745</ele>
        <time>2021-08-28T15:25:00.000Z</time>
      </trkpt>
      <trkpt lat="43.85182" lon="-1.38824">
        <ele>12.40718</ele>
        <time>2021-08-28T15:25:21.000Z</time>
      </trkpt>
      <trkpt lat="43.85201" lon="-1.38741">
        <ele>7.18448</ele>
        <time>2021-08-28T15:25:42.000Z</time>
      </trkpt>
      <trkpt lat="43.852" lon="-1.38694">
        <ele>6.20757</ele>
        <time>2021-08-28T15:26:02.000Z</time>
      </trkpt>
      <trkpt lat="43.85213" lon="-1.38673">
        <ele>5.99819</ele>
        <time>2021-08-28T15:26:23.000Z</time>
      </trkpt>
      <trkpt lat="43.85202" lon="-1.3868">
        <ele>6.09084</ele>
        <time>2021-08-28T15:26:43.000Z</time>
      </trkpt>
      <trkpt lat="43.85204" lon="-1.38677">
        <ele>6.05383</ele>
        <time>2021-08-28T15:28:07.000Z</time>
      </trkpt>
      <trkpt lat="43.85199" lon="-1.38627">
        <ele>5.44894</ele>
        <time>2021-08-28T15:28:28.000Z</time>
      </trkpt>
      <trkpt lat="43.85206" lon="-1.38622">
        <ele>5.60047</ele>
        <time>2021-08-28T15:28:49.000Z</time>
      </trkpt>
      <trkpt lat="43.85213" lon="-1.38622">
        <ele>5.77258</ele>
        <time>2021-08-28T15:30:52.000Z</time>
      </trkpt>
      <trkpt lat="43.8521" lon="-1.38625">
        <ele>5.74609</ele>
        <time>2021-08-28T15:40:08.000Z</time>
      </trkpt>
      <trkpt lat="43.85216" lon="-1.38635">
        <ele>5.97491</ele>
        <time>2021-08-28T15:40:50.000Z</time>
      </trkpt>
      <trkpt lat="43.8518" lon="-1.38512">
        <ele>5.44551</ele>
        <time>2021-08-28T15:42:55.000Z</time>
      </trkpt>
      <trkpt lat="43.85183" lon="-1.3848">
        <ele>5.54743</ele>
        <time>2021-08-28T15:43:16.000Z</time>
      </trkpt>
      <trkpt lat="43.85175" lon="-1.38421">
        <ele>5.78867</ele>
        <time>2021-08-28T15:43:36.000Z</time>
      </trkpt>
      <trkpt lat="43.8517" lon="-1.38355">
        <ele>6.13859</ele>
        <time>2021-08-28T15:43:56.000Z</time>
      </trkpt>
      <trkpt lat="43.85159" lon="-1.38275">
        <ele>7.25853</ele>
        <time>2021-08-28T15:44:17.000Z</time>
      </trkpt>
      <trkpt lat="43.85125" lon="-1.38239">
        <ele>6.24879</ele>
        <time>2021-08-28T15:44:37.000Z</time>
      </trkpt>
      <trkpt lat="43.85103" lon="-1.38227">
        <ele>6.74692</ele>
        <time>2021-08-28T15:44:57.000Z</time>
      </trkpt>
      <trkpt lat="43.85102" lon="-1.38217">
        <ele>6.56811</ele>
        <time>2021-08-28T15:45:58.000Z</time>
      </trkpt>
      <trkpt lat="43.8509" lon="-1.38112">
        <ele>5.20737</ele>
        <time>2021-08-28T15:46:19.000Z</time>
      </trkpt>
      <trkpt lat="43.8508" lon="-1.38007">
        <ele>7.46716</ele>
        <time>2021-08-28T15:46:39.000Z</time>
      </trkpt>
      <trkpt lat="43.85085" lon="-1.37919">
        <ele>9.77749</ele>
        <time>2021-08-28T15:46:59.000Z</time>
      </trkpt>
      <trkpt lat="43.85112" lon="-1.37829">
        <ele>11.80998</ele>
        <time>2021-08-28T15:47:20.000Z</time>
      </trkpt>
      <trkpt lat="43.85125" lon="-1.37762">
        <ele>12.75273</ele>
        <time>2021-08-28T15:47:40.000Z</time>
      </trkpt>
      <trkpt lat="43.85155" lon="-1.3771">
        <ele>13.91977</ele>
        <time>2021-08-28T15:48:00.000Z</time>
      </trkpt>
      <trkpt lat="43.85174" lon="-1.37622">
        <ele>15.96692</ele>
        <time>2021-08-28T15:48:20.000Z</time>
      </trkpt>
      <trkpt lat="43.85203" lon="-1.37475">
        <ele>9.235</ele>
        <time>2021-08-28T15:48:41.000Z</time>
      </trkpt>
      <trkpt lat="43.85233" lon="-1.37383">
        <ele>8.28994</ele>
        <time>2021-08-28T15:49:02.000Z</time>
      </trkpt>
      <trkpt lat="43.85244" lon="-1.37281">
        <ele>8.17602</ele>
        <time>2021-08-28T15:49:22.000Z</time>
      </trkpt>
      <trkpt lat="43.85249" lon="-1.37222">
        <ele>8.42421</ele>
        <time>2021-08-28T15:49:34.000Z</time>
      </trkpt>
      <trkpt lat="43.85254" lon="-1.37201">
        <ele>8.51541</ele>
        <time>2021-08-28T15:49:39.000Z</time>
      </trkpt>
      <trkpt lat="43.85258" lon="-1.37187">
        <ele>8.52885</ele>
        <time>2021-08-28T15:49:43.000Z</time>
      </trkpt>
      <trkpt lat="43.85261" lon="-1.37174">
        <ele>8.65973</ele>
        <time>2021-08-28T15:49:47.000Z</time>
      </trkpt>
      <trkpt lat="43.85262" lon="-1.37158">
        <ele>8.95521</ele>
        <time>2021-08-28T15:49:52.000Z</time>
      </trkpt>
      <trkpt lat="43.85263" lon="-1.37146">
        <ele>9.52716</ele>
        <time>2021-08-28T15:49:56.000Z</time>
      </trkpt>
      <trkpt lat="43.85265" lon="-1.37131">
        <ele>10.63088</ele>
        <time>2021-08-28T15:50:00.000Z</time>
      </trkpt>
      <trkpt lat="43.85264" lon="-1.37116">
        <ele>11.52259</ele>
        <time>2021-08-28T15:50:04.000Z</time>
      </trkpt>
      <trkpt lat="43.85263" lon="-1.37101">
        <ele>11.80675</ele>
        <time>2021-08-28T15:50:08.000Z</time>
      </trkpt>
      <trkpt lat="43.85261" lon="-1.37087">
        <ele>11.84803</ele>
        <time>2021-08-28T15:50:12.000Z</time>
      </trkpt>
      <trkpt lat="43.85264" lon="-1.37073">
        <ele>12.12234</ele>
        <time>2021-08-28T15:50:16.000Z</time>
      </trkpt>
      <trkpt lat="43.8527" lon="-1.37061">
        <ele>12.78903</ele>
        <time>2021-08-28T15:50:20.000Z</time>
      </trkpt>
      <trkpt lat="43.85274" lon="-1.37043">
        <ele>13.37537</ele>
        <time>2021-08-28T15:50:25.000Z</time>
      </trkpt>
      <trkpt lat="43.85276" lon="-1.37024">
        <ele>13.84753</ele>
        <time>2021-08-28T15:50:30.000Z</time>
      </trkpt>
      <trkpt lat="43.85277" lon="-1.37009">
        <ele>14.15119</ele>
        <time>2021-08-28T15:50:34.000Z</time>
      </trkpt>
      <trkpt lat="43.85278" lon="-1.36995">
        <ele>14.55239</ele>
        <time>2021-08-28T15:50:38.000Z</time>
      </trkpt>
      <trkpt lat="43.8528" lon="-1.36978">
        <ele>15.0661</ele>
        <time>2021-08-28T15:50:43.000Z</time>
      </trkpt>
      <trkpt lat="43.85281" lon="-1.36965">
        <ele>15.50285</ele>
        <time>2021-08-28T15:50:47.000Z</time>
      </trkpt>
      <trkpt lat="43.85282" lon="-1.3695">
        <ele>15.7987</ele>
        <time>2021-08-28T15:50:51.000Z</time>
      </trkpt>
      <trkpt lat="43.85284" lon="-1.36934">
        <ele>16.04691</ele>
        <time>2021-08-28T15:50:55.000Z</time>
      </trkpt>
      <trkpt lat="43.85285" lon="-1.36918">
        <ele>16.28382</ele>
        <time>2021-08-28T15:50:59.000Z</time>
      </trkpt>
      <trkpt lat="43.85287" lon="-1.369">
        <ele>16.40814</ele>
        <time>2021-08-28T15:51:03.000Z</time>
      </trkpt>
      <trkpt lat="43.85289" lon="-1.36875">
        <ele>16.35156</ele>
        <time>2021-08-28T15:51:08.000Z</time>
      </trkpt>
      <trkpt lat="43.85288" lon="-1.36847">
        <ele>16.15322</ele>
        <time>2021-08-28T15:51:13.000Z</time>
      </trkpt>
      <trkpt lat="43.85286" lon="-1.36824">
        <ele>15.97601</ele>
        <time>2021-08-28T15:51:17.000Z</time>
      </trkpt>
      <trkpt lat="43.85286" lon="-1.368">
        <ele>15.45041</ele>
        <time>2021-08-28T15:51:21.000Z</time>
      </trkpt>
      <trkpt lat="43.85283" lon="-1.36763">
        <ele>15.23004</ele>
        <time>2021-08-28T15:51:26.000Z</time>
      </trkpt>
      <trkpt lat="43.85286" lon="-1.36726">
        <ele>13.90517</ele>
        <time>2021-08-28T15:51:30.000Z</time>
      </trkpt>
      <trkpt lat="43.85275" lon="-1.3668">
        <ele>11.54558</ele>
        <time>2021-08-28T15:51:35.000Z</time>
      </trkpt>
      <trkpt lat="43.85265" lon="-1.36642">
        <ele>11.76475</ele>
        <time>2021-08-28T15:51:40.000Z</time>
      </trkpt>
      <trkpt lat="43.85253" lon="-1.36611">
        <ele>12.86729</ele>
        <time>2021-08-28T15:51:44.000Z</time>
      </trkpt>
      <trkpt lat="43.85245" lon="-1.36576">
        <ele>13.23609</ele>
        <time>2021-08-28T15:51:49.000Z</time>
      </trkpt>
      <trkpt lat="43.85229" lon="-1.36548">
        <ele>10.98203</ele>
        <time>2021-08-28T15:51:53.000Z</time>
      </trkpt>
      <trkpt lat="43.85224" lon="-1.36521">
        <ele>11.28047</ele>
        <time>2021-08-28T15:51:57.000Z</time>
      </trkpt>
      <trkpt lat="43.85219" lon="-1.36489">
        <ele>10.6104</ele>
        <time>2021-08-28T15:52:02.000Z</time>
      </trkpt>
      <trkpt lat="43.85226" lon="-1.3645">
        <ele>10.39916</ele>
        <time>2021-08-28T15:52:07.000Z</time>
      </trkpt>
      <trkpt lat="43.85231" lon="-1.36421">
        <ele>10.78409</ele>
        <time>2021-08-28T15:52:11.000Z</time>
      </trkpt>
      <trkpt lat="43.85226" lon="-1.36394">
        <ele>11.2868</ele>
        <time>2021-08-28T15:52:15.000Z</time>
      </trkpt>
      <trkpt lat="43.85227" lon="-1.36368">
        <ele>11.48288</ele>
        <time>2021-08-28T15:52:19.000Z</time>
      </trkpt>
      <trkpt lat="43.8522" lon="-1.36352">
        <ele>11.63813</ele>
        <time>2021-08-28T15:52:23.000Z</time>
      </trkpt>
      <trkpt lat="43.85218" lon="-1.3634">
        <ele>12.09433</ele>
        <time>2021-08-28T15:52:28.000Z</time>
      </trkpt>
      <trkpt lat="43.85223" lon="-1.36332">
        <ele>12.39144</ele>
        <time>2021-08-28T15:53:18.000Z</time>
      </trkpt>
      <trkpt lat="43.85216" lon="-1.36312">
        <ele>12.69713</ele>
        <time>2021-08-28T15:53:23.000Z</time>
      </trkpt>
      <trkpt lat="43.85218" lon="-1.36297">
        <ele>12.8188</ele>
        <time>2021-08-28T15:53:27.000Z</time>
      </trkpt>
      <trkpt lat="43.85224" lon="-1.3628">
        <ele>12.73792</ele>
        <time>2021-08-28T15:53:31.000Z</time>
      </trkpt>
      <trkpt lat="43.85232" lon="-1.36261">
        <ele>12.66061</ele>
        <time>2021-08-28T15:53:36.000Z</time>
      </trkpt>
      <trkpt lat="43.85227" lon="-1.36244">
        <ele>12.83929</ele>
        <time>2021-08-28T15:53:40.000Z</time>
      </trkpt>
      <trkpt lat="43.85225" lon="-1.36225">
        <ele>13.13498</ele>
        <time>2021-08-28T15:53:44.000Z</time>
      </trkpt>
      <trkpt lat="43.8522" lon="-1.36206">
        <ele>13.3967</ele>
        <time>2021-08-28T15:53:48.000Z</time>
      </trkpt>
      <trkpt lat="43.85212" lon="-1.3618">
        <ele>13.38676</ele>
        <time>2021-08-28T15:53:53.000Z</time>
      </trkpt>
      <trkpt lat="43.85207" lon="-1.3616">
        <ele>13.32017</ele>
        <time>2021-08-28T15:53:57.000Z</time>
      </trkpt>
      <trkpt lat="43.852" lon="-1.36142">
        <ele>13.43785</ele>
        <time>2021-08-28T15:54:01.000Z</time>
      </trkpt>
      <trkpt lat="43.85189" lon="-1.36119">
        <ele>13.88247</ele>
        <time>2021-08-28T15:54:06.000Z</time>
      </trkpt>
      <trkpt lat="43.85182" lon="-1.36098">
        <ele>13.81531</ele>
        <time>2021-08-28T15:54:10.000Z</time>
      </trkpt>
      <trkpt lat="43.85173" lon="-1.36073">
        <ele>13.75137</ele>
        <time>2021-08-28T15:54:15.000Z</time>
      </trkpt>
      <trkpt lat="43.85166" lon="-1.36051">
        <ele>13.99268</ele>
        <time>2021-08-28T15:54:20.000Z</time>
      </trkpt>
      <trkpt lat="43.8516" lon="-1.36033">
        <ele>14.09116</ele>
        <time>2021-08-28T15:54:24.000Z</time>
      </trkpt>
      <trkpt lat="43.85154" lon="-1.36012">
        <ele>14.21198</ele>
        <time>2021-08-28T15:54:29.000Z</time>
      </trkpt>
      <trkpt lat="43.85146" lon="-1.35995">
        <ele>14.49011</ele>
        <time>2021-08-28T15:54:33.000Z</time>
      </trkpt>
      <trkpt lat="43.85135" lon="-1.35984">
        <ele>14.4182</ele>
        <time>2021-08-28T15:54:37.000Z</time>
      </trkpt>
      <trkpt lat="43.8513" lon="-1.35961">
        <ele>14.27696</ele>
        <time>2021-08-28T15:54:42.000Z</time>
      </trkpt>
      <trkpt lat="43.85127" lon="-1.35942">
        <ele>14.35162</ele>
        <time>2021-08-28T15:54:46.000Z</time>
      </trkpt>
      <trkpt lat="43.85118" lon="-1.35917">
        <ele>14.3907</ele>
        <time>2021-08-28T15:54:51.000Z</time>
      </trkpt>
      <trkpt lat="43.8511" lon="-1.35898">
        <ele>14.3349</ele>
        <time>2021-08-28T15:54:55.000Z</time>
      </trkpt>
      <trkpt lat="43.85101" lon="-1.35873">
        <ele>14.64193</ele>
        <time>2021-08-28T15:55:00.000Z</time>
      </trkpt>
      <trkpt lat="43.85094" lon="-1.35854">
        <ele>14.56201</ele>
        <time>2021-08-28T15:55:04.000Z</time>
      </trkpt>
      <trkpt lat="43.85084" lon="-1.35826">
        <ele>14.78378</ele>
        <time>2021-08-28T15:55:09.000Z</time>
      </trkpt>
      <trkpt lat="43.85079" lon="-1.35803">
        <ele>14.58638</ele>
        <time>2021-08-28T15:55:13.000Z</time>
      </trkpt>
      <trkpt lat="43.8507" lon="-1.35779">
        <ele>14.81465</ele>
        <time>2021-08-28T15:55:17.000Z</time>
      </trkpt>
      <trkpt lat="43.8506" lon="-1.35753">
        <ele>15.12819</ele>
        <time>2021-08-28T15:55:21.000Z</time>
      </trkpt>
      <trkpt lat="43.8506" lon="-1.35743">
        <ele>15.02895</ele>
        <time>2021-08-28T15:55:25.000Z</time>
      </trkpt>
      <trkpt lat="43.85063" lon="-1.35722">
        <ele>15.06445</ele>
        <time>2021-08-28T15:55:30.000Z</time>
      </trkpt>
      <trkpt lat="43.85061" lon="-1.35707">
        <ele>15.15168</ele>
        <time>2021-08-28T15:55:34.000Z</time>
      </trkpt>
      <trkpt lat="43.85057" lon="-1.35692">
        <ele>15.16972</ele>
        <time>2021-08-28T15:55:39.000Z</time>
      </trkpt>
      <trkpt lat="43.85054" lon="-1.35679">
        <ele>15.25105</ele>
        <time>2021-08-28T15:55:43.000Z</time>
      </trkpt>
      <trkpt lat="43.85045" lon="-1.3567">
        <ele>15.57603</ele>
        <time>2021-08-28T15:55:47.000Z</time>
      </trkpt>
      <trkpt lat="43.85034" lon="-1.35666">
        <ele>15.69262</ele>
        <time>2021-08-28T15:55:51.000Z</time>
      </trkpt>
      <trkpt lat="43.85031" lon="-1.35657">
        <ele>15.73351</ele>
        <time>2021-08-28T15:55:57.000Z</time>
      </trkpt>
      <trkpt lat="43.85028" lon="-1.35646">
        <ele>15.7129</ele>
        <time>2021-08-28T15:56:02.000Z</time>
      </trkpt>
      <trkpt lat="43.85029" lon="-1.35635">
        <ele>15.80262</ele>
        <time>2021-08-28T15:56:06.000Z</time>
      </trkpt>
      <trkpt lat="43.85037" lon="-1.35624">
        <ele>15.97611</ele>
        <time>2021-08-28T15:56:11.000Z</time>
      </trkpt>
      <trkpt lat="43.85045" lon="-1.35618">
        <ele>15.96174</ele>
        <time>2021-08-28T15:56:15.000Z</time>
      </trkpt>
      <trkpt lat="43.85049" lon="-1.35605">
        <ele>15.9321</ele>
        <time>2021-08-28T15:56:19.000Z</time>
      </trkpt>
      <trkpt lat="43.85048" lon="-1.35593">
        <ele>16.01053</ele>
        <time>2021-08-28T15:56:23.000Z</time>
      </trkpt>
      <trkpt lat="43.85044" lon="-1.35584">
        <ele>16.03952</ele>
        <time>2021-08-28T15:56:28.000Z</time>
      </trkpt>
      <trkpt lat="43.85044" lon="-1.35584">
        <ele>16.03952</ele>
        <time>2021-08-28T15:56:28.000Z</time>
      </trkpt>
      <trkpt lat="43.85039" lon="-1.35574">
        <ele>16.00875</ele>
        <time>2021-08-28T15:56:35.000Z</time>
      </trkpt>
      <trkpt lat="43.85047" lon="-1.3557">
        <ele>15.99833</ele>
        <time>2021-08-28T15:56:40.000Z</time>
      </trkpt>
      <trkpt lat="43.85054" lon="-1.35575">
        <ele>16.04244</ele>
        <time>2021-08-28T15:56:45.000Z</time>
      </trkpt>
      <trkpt lat="43.85063" lon="-1.35573">
        <ele>16.02808</ele>
        <time>2021-08-28T15:56:51.000Z</time>
      </trkpt>
      <trkpt lat="43.8507" lon="-1.35565">
        <ele>15.88103</ele>
        <time>2021-08-28T15:56:56.000Z</time>
      </trkpt>
      <trkpt lat="43.85076" lon="-1.35557">
        <ele>15.74893</ele>
        <time>2021-08-28T15:57:51.000Z</time>
      </trkpt>
      <trkpt lat="43.85087" lon="-1.35549">
        <ele>15.78386</ele>
        <time>2021-08-28T15:57:55.000Z</time>
      </trkpt>
      <trkpt lat="43.85099" lon="-1.3554">
        <ele>15.85997</ele>
        <time>2021-08-28T15:57:59.000Z</time>
      </trkpt>
      <trkpt lat="43.8511" lon="-1.35532">
        <ele>15.80316</ele>
        <time>2021-08-28T15:58:03.000Z</time>
      </trkpt>
      <trkpt lat="43.85119" lon="-1.35521">
        <ele>15.82497</ele>
        <time>2021-08-28T15:58:07.000Z</time>
      </trkpt>
      <trkpt lat="43.85122" lon="-1.35504">
        <ele>15.82979</ele>
        <time>2021-08-28T15:58:11.000Z</time>
      </trkpt>
      <trkpt lat="43.85119" lon="-1.35488">
        <ele>15.85989</ele>
        <time>2021-08-28T15:58:15.000Z</time>
      </trkpt>
      <trkpt lat="43.85111" lon="-1.35478">
        <ele>15.96004</ele>
        <time>2021-08-28T15:58:19.000Z</time>
      </trkpt>
      <trkpt lat="43.85097" lon="-1.35479">
        <ele>16.09744</ele>
        <time>2021-08-28T15:58:23.000Z</time>
      </trkpt>
      <trkpt lat="43.85079" lon="-1.35473">
        <ele>16.21907</ele>
        <time>2021-08-28T15:58:28.000Z</time>
      </trkpt>
      <trkpt lat="43.85078" lon="-1.3545">
        <ele>16.28196</ele>
        <time>2021-08-28T15:58:32.000Z</time>
      </trkpt>
      <trkpt lat="43.85082" lon="-1.35424">
        <ele>16.41868</ele>
        <time>2021-08-28T15:58:37.000Z</time>
      </trkpt>
      <trkpt lat="43.85084" lon="-1.35405">
        <ele>16.45895</ele>
        <time>2021-08-28T15:58:41.000Z</time>
      </trkpt>
      <trkpt lat="43.85084" lon="-1.35383">
        <ele>16.59266</ele>
        <time>2021-08-28T15:58:45.000Z</time>
      </trkpt>
      <trkpt lat="43.85082" lon="-1.35361">
        <ele>16.78291</ele>
        <time>2021-08-28T15:58:49.000Z</time>
      </trkpt>
      <trkpt lat="43.85083" lon="-1.35341">
        <ele>16.89029</ele>
        <time>2021-08-28T15:58:53.000Z</time>
      </trkpt>
      <trkpt lat="43.85088" lon="-1.35318">
        <ele>16.99196</ele>
        <time>2021-08-28T15:58:58.000Z</time>
      </trkpt>
      <trkpt lat="43.85094" lon="-1.35299">
        <ele>17.09821</ele>
        <time>2021-08-28T15:59:02.000Z</time>
      </trkpt>
      <trkpt lat="43.85101" lon="-1.35279">
        <ele>17.25822</ele>
        <time>2021-08-28T15:59:06.000Z</time>
      </trkpt>
      <trkpt lat="43.85107" lon="-1.35261">
        <ele>17.27602</ele>
        <time>2021-08-28T15:59:10.000Z</time>
      </trkpt>
      <trkpt lat="43.85117" lon="-1.35246">
        <ele>17.00613</ele>
        <time>2021-08-28T15:59:14.000Z</time>
      </trkpt>
      <trkpt lat="43.85129" lon="-1.35226">
        <ele>17.03379</ele>
        <time>2021-08-28T15:59:18.000Z</time>
      </trkpt>
      <trkpt lat="43.8514" lon="-1.35203">
        <ele>17.1186</ele>
        <time>2021-08-28T15:59:22.000Z</time>
      </trkpt>
      <trkpt lat="43.85153" lon="-1.35191">
        <ele>17.10869</ele>
        <time>2021-08-28T15:59:27.000Z</time>
      </trkpt>
      <trkpt lat="43.85145" lon="-1.35186">
        <ele>17.14305</ele>
        <time>2021-08-28T15:59:58.000Z</time>
      </trkpt>
      <trkpt lat="43.8514" lon="-1.35177">
        <ele>17.16962</ele>
        <time>2021-08-28T16:00:03.000Z</time>
      </trkpt>
      <trkpt lat="43.85139" lon="-1.35158">
        <ele>17.3326</ele>
        <time>2021-08-28T16:00:08.000Z</time>
      </trkpt>
      <trkpt lat="43.85136" lon="-1.3514">
        <ele>17.21289</ele>
        <time>2021-08-28T16:00:12.000Z</time>
      </trkpt>
      <trkpt lat="43.85126" lon="-1.35126">
        <ele>17.11075</ele>
        <time>2021-08-28T16:00:17.000Z</time>
      </trkpt>
      <trkpt lat="43.85111" lon="-1.35118">
        <ele>17.25021</ele>
        <time>2021-08-28T16:00:21.000Z</time>
      </trkpt>
      <trkpt lat="43.851" lon="-1.35101">
        <ele>17.37704</ele>
        <time>2021-08-28T16:00:26.000Z</time>
      </trkpt>
      <trkpt lat="43.8509" lon="-1.35097">
        <ele>17.45222</ele>
        <time>2021-08-28T16:00:30.000Z</time>
      </trkpt>
      <trkpt lat="43.85089" lon="-1.35085">
        <ele>17.46602</ele>
        <time>2021-08-28T16:00:36.000Z</time>
      </trkpt>
      <trkpt lat="43.85088" lon="-1.35066">
        <ele>17.5545</ele>
        <time>2021-08-28T16:00:40.000Z</time>
      </trkpt>
      <trkpt lat="43.85082" lon="-1.3504">
        <ele>17.56887</ele>
        <time>2021-08-28T16:00:45.000Z</time>
      </trkpt>
      <trkpt lat="43.85078" lon="-1.35016">
        <ele>17.70697</ele>
        <time>2021-08-28T16:00:49.000Z</time>
      </trkpt>
      <trkpt lat="43.8508" lon="-1.34994">
        <ele>18.0477</ele>
        <time>2021-08-28T16:00:54.000Z</time>
      </trkpt>
      <trkpt lat="43.85084" lon="-1.34984">
        <ele>18.04426</ele>
        <time>2021-08-28T16:01:00.000Z</time>
      </trkpt>
      <trkpt lat="43.85084" lon="-1.34974">
        <ele>17.95668</ele>
        <time>2021-08-28T16:01:04.000Z</time>
      </trkpt>
      <trkpt lat="43.85086" lon="-1.34957">
        <ele>17.82148</ele>
        <time>2021-08-28T16:01:09.000Z</time>
      </trkpt>
      <trkpt lat="43.85093" lon="-1.34943">
        <ele>17.7953</ele>
        <time>2021-08-28T16:01:13.000Z</time>
      </trkpt>
      <trkpt lat="43.85102" lon="-1.34926">
        <ele>17.86914</ele>
        <time>2021-08-28T16:01:18.000Z</time>
      </trkpt>
      <trkpt lat="43.85109" lon="-1.34911">
        <ele>18.05513</ele>
        <time>2021-08-28T16:01:23.000Z</time>
      </trkpt>
      <trkpt lat="43.85115" lon="-1.34895">
        <ele>18.08448</ele>
        <time>2021-08-28T16:01:27.000Z</time>
      </trkpt>
      <trkpt lat="43.85122" lon="-1.34878">
        <ele>18.06342</ele>
        <time>2021-08-28T16:01:31.000Z</time>
      </trkpt>
      <trkpt lat="43.85127" lon="-1.34859">
        <ele>18.15337</ele>
        <time>2021-08-28T16:01:35.000Z</time>
      </trkpt>
      <trkpt lat="43.85138" lon="-1.34843">
        <ele>18.0741</ele>
        <time>2021-08-28T16:01:39.000Z</time>
      </trkpt>
      <trkpt lat="43.85149" lon="-1.34828">
        <ele>18.06639</ele>
        <time>2021-08-28T16:01:43.000Z</time>
      </trkpt>
      <trkpt lat="43.8516" lon="-1.34807">
        <ele>18.23463</ele>
        <time>2021-08-28T16:01:47.000Z</time>
      </trkpt>
      <trkpt lat="43.85174" lon="-1.34778">
        <ele>18.41824</ele>
        <time>2021-08-28T16:01:52.000Z</time>
      </trkpt>
      <trkpt lat="43.85189" lon="-1.34756">
        <ele>18.50856</ele>
        <time>2021-08-28T16:01:56.000Z</time>
      </trkpt>
      <trkpt lat="43.85204" lon="-1.34728">
        <ele>18.58172</ele>
        <time>2021-08-28T16:02:01.000Z</time>
      </trkpt>
      <trkpt lat="43.85213" lon="-1.34711">
        <ele>18.51072</ele>
        <time>2021-08-28T16:02:05.000Z</time>
      </trkpt>
      <trkpt lat="43.85222" lon="-1.34691">
        <ele>18.56893</ele>
        <time>2021-08-28T16:02:09.000Z</time>
      </trkpt>
      <trkpt lat="43.85232" lon="-1.34671">
        <ele>18.80242</ele>
        <time>2021-08-28T16:02:13.000Z</time>
      </trkpt>
      <trkpt lat="43.85244" lon="-1.34651">
        <ele>18.9361</ele>
        <time>2021-08-28T16:02:17.000Z</time>
      </trkpt>
      <trkpt lat="43.85257" lon="-1.34631">
        <ele>19.04817</ele>
        <time>2021-08-28T16:02:21.000Z</time>
      </trkpt>
      <trkpt lat="43.85268" lon="-1.34607">
        <ele>18.96217</ele>
        <time>2021-08-28T16:02:26.000Z</time>
      </trkpt>
      <trkpt lat="43.85278" lon="-1.34588">
        <ele>18.91881</ele>
        <time>2021-08-28T16:02:30.000Z</time>
      </trkpt>
      <trkpt lat="43.85291" lon="-1.34565">
        <ele>19.14592</ele>
        <time>2021-08-28T16:02:35.000Z</time>
      </trkpt>
      <trkpt lat="43.85299" lon="-1.34547">
        <ele>19.08961</ele>
        <time>2021-08-28T16:02:39.000Z</time>
      </trkpt>
      <trkpt lat="43.85317" lon="-1.34522">
        <ele>19.23843</ele>
        <time>2021-08-28T16:02:44.000Z</time>
      </trkpt>
      <trkpt lat="43.85327" lon="-1.34499">
        <ele>19.23447</ele>
        <time>2021-08-28T16:02:48.000Z</time>
      </trkpt>
      <trkpt lat="43.85338" lon="-1.34477">
        <ele>19.33726</ele>
        <time>2021-08-28T16:02:52.000Z</time>
      </trkpt>
      <trkpt lat="43.85346" lon="-1.34456">
        <ele>19.42804</ele>
        <time>2021-08-28T16:02:56.000Z</time>
      </trkpt>
      <trkpt lat="43.85362" lon="-1.34429">
        <ele>19.62934</ele>
        <time>2021-08-28T16:03:01.000Z</time>
      </trkpt>
      <trkpt lat="43.85368" lon="-1.34407">
        <ele>19.5894</ele>
        <time>2021-08-28T16:03:05.000Z</time>
      </trkpt>
      <trkpt lat="43.85384" lon="-1.34378">
        <ele>19.59999</ele>
        <time>2021-08-28T16:03:10.000Z</time>
      </trkpt>
      <trkpt lat="43.85402" lon="-1.34351">
        <ele>19.82127</ele>
        <time>2021-08-28T16:03:15.000Z</time>
      </trkpt>
      <trkpt lat="43.85412" lon="-1.34328">
        <ele>19.85464</ele>
        <time>2021-08-28T16:03:19.000Z</time>
      </trkpt>
      <trkpt lat="43.8543" lon="-1.34307">
        <ele>19.8322</ele>
        <time>2021-08-28T16:03:23.000Z</time>
      </trkpt>
      <trkpt lat="43.85442" lon="-1.3428">
        <ele>19.93986</ele>
        <time>2021-08-28T16:03:28.000Z</time>
      </trkpt>
      <trkpt lat="43.85449" lon="-1.34256">
        <ele>20.08328</ele>
        <time>2021-08-28T16:03:32.000Z</time>
      </trkpt>
      <trkpt lat="43.85463" lon="-1.34231">
        <ele>20.17181</ele>
        <time>2021-08-28T16:03:37.000Z</time>
      </trkpt>
      <trkpt lat="43.85472" lon="-1.34214">
        <ele>20.33022</ele>
        <time>2021-08-28T16:03:41.000Z</time>
      </trkpt>
      <trkpt lat="43.85486" lon="-1.34189">
        <ele>20.60929</ele>
        <time>2021-08-28T16:03:46.000Z</time>
      </trkpt>
      <trkpt lat="43.85494" lon="-1.3417">
        <ele>20.8986</ele>
        <time>2021-08-28T16:03:50.000Z</time>
      </trkpt>
      <trkpt lat="43.85505" lon="-1.34149">
        <ele>20.83865</ele>
        <time>2021-08-28T16:03:54.000Z</time>
      </trkpt>
      <trkpt lat="43.85512" lon="-1.34131">
        <ele>21.03776</ele>
        <time>2021-08-28T16:03:58.000Z</time>
      </trkpt>
      <trkpt lat="43.85515" lon="-1.34114">
        <ele>21.4065</ele>
        <time>2021-08-28T16:04:02.000Z</time>
      </trkpt>
      <trkpt lat="43.85524" lon="-1.34094">
        <ele>21.7529</ele>
        <time>2021-08-28T16:04:06.000Z</time>
      </trkpt>
      <trkpt lat="43.85541" lon="-1.34069">
        <ele>22.07661</ele>
        <time>2021-08-28T16:04:11.000Z</time>
      </trkpt>
      <trkpt lat="43.8555" lon="-1.3405">
        <ele>21.97</ele>
        <time>2021-08-28T16:04:15.000Z</time>
      </trkpt>
      <trkpt lat="43.85563" lon="-1.34029">
        <ele>22.15246</ele>
        <time>2021-08-28T16:04:19.000Z</time>
      </trkpt>
      <trkpt lat="43.85576" lon="-1.3401">
        <ele>22.27969</ele>
        <time>2021-08-28T16:04:23.000Z</time>
      </trkpt>
      <trkpt lat="43.85589" lon="-1.33992">
        <ele>22.26464</ele>
        <time>2021-08-28T16:04:27.000Z</time>
      </trkpt>
      <trkpt lat="43.85604" lon="-1.33975">
        <ele>22.77705</ele>
        <time>2021-08-28T16:04:31.000Z</time>
      </trkpt>
      <trkpt lat="43.85615" lon="-1.33956">
        <ele>22.4386</ele>
        <time>2021-08-28T16:04:35.000Z</time>
      </trkpt>
      <trkpt lat="43.85628" lon="-1.33937">
        <ele>22.76546</ele>
        <time>2021-08-28T16:04:39.000Z</time>
      </trkpt>
      <trkpt lat="43.85641" lon="-1.33915">
        <ele>22.9281</ele>
        <time>2021-08-28T16:04:44.000Z</time>
      </trkpt>
      <trkpt lat="43.85652" lon="-1.33892">
        <ele>23.22738</ele>
        <time>2021-08-28T16:04:49.000Z</time>
      </trkpt>
      <trkpt lat="43.85663" lon="-1.33874">
        <ele>23.61515</ele>
        <time>2021-08-28T16:04:53.000Z</time>
      </trkpt>
      <trkpt lat="43.85677" lon="-1.33848">
        <ele>23.67556</ele>
        <time>2021-08-28T16:04:58.000Z</time>
      </trkpt>
      <trkpt lat="43.85689" lon="-1.33824">
        <ele>25.8551</ele>
        <time>2021-08-28T16:05:03.000Z</time>
      </trkpt>
      <trkpt lat="43.857" lon="-1.33808">
        <ele>23.53422</ele>
        <time>2021-08-28T16:05:07.000Z</time>
      </trkpt>
      <trkpt lat="43.8572" lon="-1.33785">
        <ele>23.44912</ele>
        <time>2021-08-28T16:05:12.000Z</time>
      </trkpt>
      <trkpt lat="43.85737" lon="-1.33759">
        <ele>22.21656</ele>
        <time>2021-08-28T16:05:17.000Z</time>
      </trkpt>
      <trkpt lat="43.85755" lon="-1.33736">
        <ele>20.58002</ele>
        <time>2021-08-28T16:05:21.000Z</time>
      </trkpt>
      <trkpt lat="43.85775" lon="-1.33708">
        <ele>19.7895</ele>
        <time>2021-08-28T16:05:26.000Z</time>
      </trkpt>
      <trkpt lat="43.85786" lon="-1.33684">
        <ele>20.78139</ele>
        <time>2021-08-28T16:05:30.000Z</time>
      </trkpt>
      <trkpt lat="43.85798" lon="-1.33664">
        <ele>21.32795</ele>
        <time>2021-08-28T16:05:34.000Z</time>
      </trkpt>
      <trkpt lat="43.85818" lon="-1.33633">
        <ele>21.47257</ele>
        <time>2021-08-28T16:05:39.000Z</time>
      </trkpt>
      <trkpt lat="43.85835" lon="-1.33611">
        <ele>21.31756</ele>
        <time>2021-08-28T16:05:43.000Z</time>
      </trkpt>
      <trkpt lat="43.85856" lon="-1.33583">
        <ele>20.53522</ele>
        <time>2021-08-28T16:05:48.000Z</time>
      </trkpt>
      <trkpt lat="43.85867" lon="-1.33556">
        <ele>20.8758</ele>
        <time>2021-08-28T16:05:52.000Z</time>
      </trkpt>
      <trkpt lat="43.85883" lon="-1.33534">
        <ele>20.79614</ele>
        <time>2021-08-28T16:05:56.000Z</time>
      </trkpt>
      <trkpt lat="43.85893" lon="-1.33507">
        <ele>21.02155</ele>
        <time>2021-08-28T16:06:00.000Z</time>
      </trkpt>
      <trkpt lat="43.85905" lon="-1.33481">
        <ele>21.19193</ele>
        <time>2021-08-28T16:06:04.000Z</time>
      </trkpt>
      <trkpt lat="43.85917" lon="-1.33459">
        <ele>20.74517</ele>
        <time>2021-08-28T16:06:08.000Z</time>
      </trkpt>
      <trkpt lat="43.85931" lon="-1.33433">
        <ele>20.22393</ele>
        <time>2021-08-28T16:06:12.000Z</time>
      </trkpt>
      <trkpt lat="43.85937" lon="-1.33404">
        <ele>20.18335</ele>
        <time>2021-08-28T16:06:16.000Z</time>
      </trkpt>
      <trkpt lat="43.85939" lon="-1.33373">
        <ele>19.7513</ele>
        <time>2021-08-28T16:06:20.000Z</time>
      </trkpt>
      <trkpt lat="43.85945" lon="-1.33345">
        <ele>20.62844</ele>
        <time>2021-08-28T16:06:24.000Z</time>
      </trkpt>
      <trkpt lat="43.85956" lon="-1.33303">
        <ele>20.40354</ele>
        <time>2021-08-28T16:06:29.000Z</time>
      </trkpt>
      <trkpt lat="43.85965" lon="-1.33265">
        <ele>20.33209</ele>
        <time>2021-08-28T16:06:34.000Z</time>
      </trkpt>
      <trkpt lat="43.85974" lon="-1.33235">
        <ele>21.05442</ele>
        <time>2021-08-28T16:06:38.000Z</time>
      </trkpt>
      <trkpt lat="43.85979" lon="-1.33205">
        <ele>20.57142</ele>
        <time>2021-08-28T16:06:42.000Z</time>
      </trkpt>
      <trkpt lat="43.85993" lon="-1.33178">
        <ele>20.73351</ele>
        <time>2021-08-28T16:06:46.000Z</time>
      </trkpt>
      <trkpt lat="43.85999" lon="-1.3315">
        <ele>22.01258</ele>
        <time>2021-08-28T16:06:51.000Z</time>
      </trkpt>
      <trkpt lat="43.86001" lon="-1.33124">
        <ele>22.23157</ele>
        <time>2021-08-28T16:06:55.000Z</time>
      </trkpt>
      <trkpt lat="43.86006" lon="-1.33104">
        <ele>21.99469</ele>
        <time>2021-08-28T16:06:59.000Z</time>
      </trkpt>
      <trkpt lat="43.86014" lon="-1.3307">
        <ele>21.66443</ele>
        <time>2021-08-28T16:07:04.000Z</time>
      </trkpt>
      <trkpt lat="43.86021" lon="-1.33052">
        <ele>22.48074</ele>
        <time>2021-08-28T16:07:08.000Z</time>
      </trkpt>
      <trkpt lat="43.86028" lon="-1.3303">
        <ele>22.78378</ele>
        <time>2021-08-28T16:07:12.000Z</time>
      </trkpt>
      <trkpt lat="43.86041" lon="-1.32999">
        <ele>22.62134</ele>
        <time>2021-08-28T16:07:17.000Z</time>
      </trkpt>
      <trkpt lat="43.8605" lon="-1.32979">
        <ele>22.94627</ele>
        <time>2021-08-28T16:07:21.000Z</time>
      </trkpt>
      <trkpt lat="43.86067" lon="-1.32953">
        <ele>24.77436</ele>
        <time>2021-08-28T16:07:26.000Z</time>
      </trkpt>
      <trkpt lat="43.86078" lon="-1.3292">
        <ele>21.86033</ele>
        <time>2021-08-28T16:07:31.000Z</time>
      </trkpt>
      <trkpt lat="43.86089" lon="-1.32902">
        <ele>20.61026</ele>
        <time>2021-08-28T16:07:35.000Z</time>
      </trkpt>
      <trkpt lat="43.86109" lon="-1.32874">
        <ele>21.45783</ele>
        <time>2021-08-28T16:07:40.000Z</time>
      </trkpt>
      <trkpt lat="43.86129" lon="-1.3285">
        <ele>21.43921</ele>
        <time>2021-08-28T16:07:45.000Z</time>
      </trkpt>
      <trkpt lat="43.86147" lon="-1.32829">
        <ele>21.28628</ele>
        <time>2021-08-28T16:07:49.000Z</time>
      </trkpt>
      <trkpt lat="43.86163" lon="-1.3281">
        <ele>20.26696</ele>
        <time>2021-08-28T16:07:53.000Z</time>
      </trkpt>
      <trkpt lat="43.86177" lon="-1.32784">
        <ele>20.88625</ele>
        <time>2021-08-28T16:07:58.000Z</time>
      </trkpt>
      <trkpt lat="43.86195" lon="-1.32759">
        <ele>20.56672</ele>
        <time>2021-08-28T16:08:02.000Z</time>
      </trkpt>
      <trkpt lat="43.86218" lon="-1.32732">
        <ele>20.17404</ele>
        <time>2021-08-28T16:08:07.000Z</time>
      </trkpt>
      <trkpt lat="43.86234" lon="-1.32714">
        <ele>20.91543</ele>
        <time>2021-08-28T16:08:11.000Z</time>
      </trkpt>
      <trkpt lat="43.86251" lon="-1.32689">
        <ele>20.38687</ele>
        <time>2021-08-28T16:08:15.000Z</time>
      </trkpt>
      <trkpt lat="43.86269" lon="-1.32669">
        <ele>21.14005</ele>
        <time>2021-08-28T16:08:19.000Z</time>
      </trkpt>
      <trkpt lat="43.86289" lon="-1.32644">
        <ele>19.3705</ele>
        <time>2021-08-28T16:08:23.000Z</time>
      </trkpt>
      <trkpt lat="43.86314" lon="-1.32624">
        <ele>19.71394</ele>
        <time>2021-08-28T16:08:28.000Z</time>
      </trkpt>
      <trkpt lat="43.8634" lon="-1.32597">
        <ele>20.55472</ele>
        <time>2021-08-28T16:08:33.000Z</time>
      </trkpt>
      <trkpt lat="43.86354" lon="-1.32575">
        <ele>19.73262</ele>
        <time>2021-08-28T16:08:37.000Z</time>
      </trkpt>
      <trkpt lat="43.86371" lon="-1.32554">
        <ele>20.05862</ele>
        <time>2021-08-28T16:08:41.000Z</time>
      </trkpt>
      <trkpt lat="43.86388" lon="-1.32532">
        <ele>19.95384</ele>
        <time>2021-08-28T16:08:45.000Z</time>
      </trkpt>
      <trkpt lat="43.86404" lon="-1.32515">
        <ele>19.39981</ele>
        <time>2021-08-28T16:08:49.000Z</time>
      </trkpt>
      <trkpt lat="43.86417" lon="-1.32492">
        <ele>19.62494</ele>
        <time>2021-08-28T16:08:53.000Z</time>
      </trkpt>
      <trkpt lat="43.86431" lon="-1.32474">
        <ele>18.58485</ele>
        <time>2021-08-28T16:08:58.000Z</time>
      </trkpt>
      <trkpt lat="43.8644" lon="-1.32461">
        <ele>19.35364</ele>
        <time>2021-08-28T16:09:03.000Z</time>
      </trkpt>
      <trkpt lat="43.86446" lon="-1.32449">
        <ele>19.51751</ele>
        <time>2021-08-28T16:09:07.000Z</time>
      </trkpt>
      <trkpt lat="43.86452" lon="-1.32441">
        <ele>19.16551</ele>
        <time>2021-08-28T16:09:12.000Z</time>
      </trkpt>
      <trkpt lat="43.86458" lon="-1.32428">
        <ele>18.78484</ele>
        <time>2021-08-28T16:09:17.000Z</time>
      </trkpt>
      <trkpt lat="43.86452" lon="-1.32416">
        <ele>19.34505</ele>
        <time>2021-08-28T16:09:21.000Z</time>
      </trkpt>
      <trkpt lat="43.86438" lon="-1.32419">
        <ele>20.74621</ele>
        <time>2021-08-28T16:09:26.000Z</time>
      </trkpt>
      <trkpt lat="43.86426" lon="-1.32441">
        <ele>20.80408</ele>
        <time>2021-08-28T16:09:31.000Z</time>
      </trkpt>
      <trkpt lat="43.86415" lon="-1.32446">
        <ele>20.91038</ele>
        <time>2021-08-28T16:09:36.000Z</time>
      </trkpt>
      <trkpt lat="43.86403" lon="-1.32445">
        <ele>21.40672</ele>
        <time>2021-08-28T16:09:40.000Z</time>
      </trkpt>
      <trkpt lat="43.86387" lon="-1.32433">
        <ele>22.77422</ele>
        <time>2021-08-28T16:09:44.000Z</time>
      </trkpt>
      <trkpt lat="43.86376" lon="-1.32423">
        <ele>23.62044</ele>
        <time>2021-08-28T16:09:48.000Z</time>
      </trkpt>
      <trkpt lat="43.86365" lon="-1.32423">
        <ele>23.76366</ele>
        <time>2021-08-28T16:09:52.000Z</time>
      </trkpt>
      <trkpt lat="43.86356" lon="-1.32427">
        <ele>23.85362</ele>
        <time>2021-08-28T16:09:56.000Z</time>
      </trkpt>
      <trkpt lat="43.86345" lon="-1.32428">
        <ele>24.16086</ele>
        <time>2021-08-28T16:10:00.000Z</time>
      </trkpt>
      <trkpt lat="43.86335" lon="-1.32425">
        <ele>24.65974</ele>
        <time>2021-08-28T16:10:04.000Z</time>
      </trkpt>
      <trkpt lat="43.8632" lon="-1.32429">
        <ele>24.92519</ele>
        <time>2021-08-28T16:10:09.000Z</time>
      </trkpt>
      <trkpt lat="43.86307" lon="-1.32432">
        <ele>25.1595</ele>
        <time>2021-08-28T16:10:13.000Z</time>
      </trkpt>
      <trkpt lat="43.86295" lon="-1.32428">
        <ele>25.66614</ele>
        <time>2021-08-28T16:10:17.000Z</time>
      </trkpt>
      <trkpt lat="43.86284" lon="-1.32418">
        <ele>26.29207</ele>
        <time>2021-08-28T16:10:21.000Z</time>
      </trkpt>
      <trkpt lat="43.86274" lon="-1.3242">
        <ele>26.40672</ele>
        <time>2021-08-28T16:10:25.000Z</time>
      </trkpt>
      <trkpt lat="43.86264" lon="-1.32427">
        <ele>26.44565</ele>
        <time>2021-08-28T16:10:30.000Z</time>
      </trkpt>
      <trkpt lat="43.86255" lon="-1.32426">
        <ele>26.73546</ele>
        <time>2021-08-28T16:10:34.000Z</time>
      </trkpt>
      <trkpt lat="43.86251" lon="-1.32412">
        <ele>27.20645</ele>
        <time>2021-08-28T16:10:38.000Z</time>
      </trkpt>
      <trkpt lat="43.86253" lon="-1.32413">
        <ele>27.15478</ele>
        <time>2021-08-28T16:12:17.000Z</time>
      </trkpt>
    </trkseg>
  </trk>
</gpx>